createdAt,value
2019-01-19T00:02:05.289Z,16.42
2019-01-19T00:04:55.345Z,12.60
2019-01-19T00:07:49.259Z,15.65
2019-01-19T00:10:29.329Z,16.60
2019-01-19T00:13:19.713Z,12.85
2019-01-19T00:16:10.964Z,11.78
2019-01-19T00:19:03.961Z,17.48
2019-01-19T00:21:43.640Z,13.25
2019-01-19T00:24:27.171Z,12.20
2019-01-19T00:27:07.667Z,13.25
2019-01-19T00:29:41.792Z,13.45
2019-01-19T00:32:18.397Z,13.35
2019-01-19T00:35:01.518Z,14.87
2019-01-19T00:37:38.758Z,20.20
2019-01-19T00:40:16.798Z,12.73
2019-01-19T00:42:48.353Z,12.60
2019-01-19T00:45:47.223Z,19.80
2019-01-19T00:48:36.782Z,12.18
2019-01-19T00:51:10.956Z,11.38
2019-01-19T00:53:48.129Z,13.32
2019-01-19T00:56:31.320Z,12.73
2019-01-19T00:59:02.840Z,13.22
2019-01-19T01:01:58.759Z,13.93
2019-01-19T01:04:41.936Z,10.32
2019-01-19T01:07:31.052Z,13.72
2019-01-19T01:10:11.362Z,14.07
2019-01-19T01:13:08.821Z,11.00
2019-01-19T01:15:43.174Z,15.78
2019-01-19T01:18:14.949Z,11.68
2019-01-19T01:20:55.167Z,13.78
2019-01-19T01:23:43.270Z,14.40
2019-01-19T01:26:34.456Z,15.45
2019-01-19T01:29:22.264Z,14.35
2019-01-19T01:31:59.410Z,14.80
2019-01-19T01:34:42.772Z,11.80
2019-01-19T01:37:19.444Z,11.60
2019-01-19T01:40:07.794Z,12.60
2019-01-19T01:42:42.228Z,10.78
2019-01-19T01:45:30.195Z,16.15
2019-01-19T01:48:21.396Z,13.93
2019-01-19T01:51:01.495Z,11.90
2019-01-19T01:53:44.843Z,16.77
2019-01-19T01:56:13.517Z,13.80
2019-01-19T01:59:05.833Z,15.18
2019-01-19T02:01:46.383Z,16.80
2019-01-19T02:04:51.471Z,17.70
2019-01-19T02:07:37.882Z,13.53
2019-01-19T02:10:09.382Z,14.93
2019-01-19T02:12:46.747Z,14.53
2019-01-19T02:15:30.115Z,15.32
2019-01-19T02:18:19.808Z,15.70
2019-01-19T02:20:51.328Z,17.02
2019-01-19T02:23:34.488Z,14.30
2019-01-19T02:26:08.625Z,15.45
2019-01-19T02:28:45.581Z,15.00
2019-01-19T02:31:35.104Z,14.47
2019-01-19T02:34:12.434Z,23.87
2019-01-19T02:37:07.405Z,14.45
2019-01-19T02:39:58.502Z,16.67
2019-01-19T02:42:48.232Z,14.75
2019-01-19T02:45:37.915Z,14.78
2019-01-19T02:48:27.180Z,14.75
2019-01-19T02:50:58.693Z,14.13
2019-01-19T02:53:36.217Z,17.02
2019-01-19T02:56:13.889Z,19.45
2019-01-19T02:59:05.343Z,18.32
2019-01-19T03:01:52.112Z,13.90
2019-01-19T03:04:35.687Z,17.02
2019-01-19T03:07:23.917Z,14.80
2019-01-19T03:10:04.481Z,14.87
2019-01-19T03:12:50.963Z,13.75
2019-01-19T03:15:38.957Z,13.68
2019-01-19T03:18:28.442Z,15.30
2019-01-19T03:21:16.354Z,18.82
2019-01-19T03:23:53.438Z,17.15
2019-01-19T03:26:25.013Z,20.00
2019-01-19T03:28:56.566Z,15.72
2019-01-19T03:31:42.829Z,16.05
2019-01-19T03:34:20.048Z,13.58
2019-01-19T03:36:57.370Z,15.28
2019-01-19T03:39:34.586Z,15.03
2019-01-19T03:42:08.997Z,18.45
2019-01-19T03:44:43.402Z,19.65
2019-01-19T03:47:23.716Z,19.57
2019-01-19T03:50:32.136Z,19.45
2019-01-19T03:53:16.560Z,17.50
2019-01-19T03:56:16.449Z,17.20
2019-01-19T03:59:04.498Z,16.77
2019-01-19T04:01:55.418Z,15.70
2019-01-19T04:04:35.635Z,14.25
2019-01-19T04:07:12.973Z,17.90
2019-01-19T04:09:44.486Z,20.37
2019-01-19T04:12:33.856Z,16.55
2019-01-19T04:15:23.453Z,18.37
2019-01-19T04:18:03.701Z,19.17
2019-01-19T04:20:35.243Z,17.40
2019-01-19T04:23:04.488Z,17.45
2019-01-19T04:25:40.442Z,20.08
2019-01-19T04:28:09.202Z,26.10
2019-01-19T04:30:37.685Z,16.50
2019-01-19T04:33:06.194Z,19.15
2019-01-19T04:35:34.642Z,20.37
2019-01-19T04:38:03.124Z,20.88
2019-01-19T04:40:31.991Z,17.12
2019-01-19T04:43:00.478Z,19.90
2019-01-19T04:45:29.018Z,17.70
2019-01-19T04:47:57.504Z,21.12
2019-01-19T04:50:26.009Z,17.75
2019-01-19T04:52:54.413Z,20.80
2019-01-19T04:55:22.829Z,18.92
2019-01-19T04:57:51.259Z,18.85
2019-01-19T05:00:19.795Z,18.85
2019-01-19T05:02:48.242Z,18.73
2019-01-19T05:05:16.663Z,19.10
2019-01-19T05:07:45.094Z,19.70
2019-01-19T05:10:13.605Z,21.17
2019-01-19T05:12:42.017Z,18.77
2019-01-19T05:15:13.533Z,17.27
2019-01-19T05:17:42.243Z,26.50
2019-01-19T05:20:13.617Z,17.92
2019-01-19T05:22:42.034Z,21.42
2019-01-19T05:25:11.685Z,21.50
2019-01-19T05:27:40.112Z,24.00
2019-01-19T05:30:14.257Z,16.93
2019-01-19T05:32:42.818Z,20.20
2019-01-19T05:35:11.278Z,22.62
2019-01-19T05:37:39.715Z,20.12
2019-01-19T05:40:10.808Z,15.85
2019-01-19T05:42:39.594Z,19.42
2019-01-19T05:45:11.275Z,19.65
2019-01-19T05:47:39.799Z,22.37
2019-01-19T05:50:19.333Z,22.48
2019-01-19T05:52:47.908Z,20.62
2019-01-19T05:55:16.489Z,20.45
2019-01-19T05:57:45.011Z,18.17
2019-01-19T06:00:18.944Z,20.15
2019-01-19T06:02:47.430Z,18.48
2019-01-19T06:05:16.033Z,23.80
2019-01-19T06:07:44.467Z,20.70
2019-01-19T06:10:14.910Z,22.58
2019-01-19T06:12:43.373Z,23.20
2019-01-19T06:15:15.994Z,27.50
2019-01-19T06:17:44.481Z,18.30
2019-01-19T06:20:17.218Z,23.73
2019-01-19T06:22:46.021Z,20.80
2019-01-19T06:25:15.955Z,23.98
2019-01-19T06:27:44.490Z,19.45
2019-01-19T06:30:18.251Z,19.75
2019-01-19T06:32:46.806Z,23.45
2019-01-19T06:35:15.218Z,22.45
2019-01-19T06:37:43.666Z,26.00
2019-01-19T06:40:14.502Z,23.65
2019-01-19T06:42:42.925Z,25.05
2019-01-19T06:45:16.634Z,21.25
2019-01-19T06:47:45.107Z,32.17
2019-01-19T06:50:16.126Z,16.55
2019-01-19T06:52:44.733Z,23.57
2019-01-19T06:55:28.092Z,20.45
2019-01-19T06:57:56.588Z,11.65
2019-01-19T07:00:25.000Z,22.98
2019-01-19T07:02:53.432Z,20.60
2019-01-19T07:05:21.917Z,14.75
2019-01-19T07:07:51.206Z,21.55
2019-01-19T07:10:25.319Z,25.27
2019-01-19T07:12:53.763Z,31.27
2019-01-19T07:15:22.246Z,24.23
2019-01-19T07:17:50.678Z,22.70
2019-01-19T07:20:24.518Z,15.55
2019-01-19T07:22:52.973Z,23.92
2019-01-19T07:25:21.405Z,25.17
2019-01-19T07:27:49.926Z,28.23
2019-01-19T07:30:18.449Z,26.07
2019-01-19T07:32:47.565Z,19.25
2019-01-19T07:35:16.751Z,20.55
2019-01-19T07:37:45.330Z,27.58
2019-01-19T07:40:18.491Z,24.77
2019-01-19T07:42:48.923Z,27.17
2019-01-19T07:45:17.432Z,26.55
2019-01-19T07:47:45.928Z,22.35
2019-01-19T07:50:16.607Z,21.33
2019-01-19T07:52:45.063Z,18.57
2019-01-19T07:55:15.637Z,17.98
2019-01-19T07:57:44.125Z,31.33
2019-01-19T08:00:24.589Z,20.35
2019-01-19T08:02:53.014Z,24.40
2019-01-19T08:05:21.450Z,23.70
2019-01-19T08:07:49.889Z,21.07
2019-01-19T08:10:19.333Z,27.73
2019-01-19T08:12:47.865Z,21.68
2019-01-19T08:15:19.344Z,17.20
2019-01-19T08:17:47.791Z,26.52
2019-01-19T08:20:16.314Z,26.42
2019-01-19T08:22:44.834Z,23.62
2019-01-19T08:25:13.785Z,23.07
2019-01-19T08:27:42.195Z,22.13
2019-01-19T08:30:18.718Z,20.92
2019-01-19T08:32:47.635Z,27.30
2019-01-19T08:35:17.532Z,24.47
2019-01-19T08:37:46.737Z,26.55
2019-01-19T08:40:17.777Z,25.72
2019-01-19T08:42:47.848Z,22.40
2019-01-19T08:45:17.380Z,30.25
2019-01-19T08:47:45.797Z,22.22
2019-01-19T08:50:14.470Z,17.90
2019-01-19T08:52:42.964Z,20.85
2019-01-19T08:55:11.514Z,19.40
2019-01-19T08:57:39.995Z,22.00
2019-01-19T09:00:19.445Z,21.77
2019-01-19T09:02:48.013Z,22.37
2019-01-19T09:05:16.534Z,15.80
2019-01-19T09:07:45.012Z,16.42
2019-01-19T09:10:19.984Z,26.02
2019-01-19T09:12:48.462Z,22.75
2019-01-19T09:15:22.630Z,23.60
2019-01-19T09:17:51.082Z,20.00
2019-01-19T09:20:19.501Z,23.70
2019-01-19T09:22:55.426Z,24.35
2019-01-19T09:25:24.120Z,12.80
2019-01-19T09:27:52.604Z,9.10
2019-01-19T09:30:23.030Z,22.15
2019-01-19T09:32:51.432Z,20.12
2019-01-19T09:35:20.298Z,22.25
2019-01-19T09:37:48.734Z,23.20
2019-01-19T09:40:18.310Z,22.17
2019-01-19T09:42:47.289Z,24.90
2019-01-19T09:45:20.068Z,18.10
2019-01-19T09:47:48.505Z,21.85
2019-01-19T09:50:19.249Z,16.25
2019-01-19T09:52:47.996Z,19.00
2019-01-19T09:55:16.493Z,15.55
2019-01-19T09:57:45.101Z,21.57
2019-01-19T10:00:19.524Z,19.55
2019-01-19T10:02:47.927Z,19.77
2019-01-19T10:05:19.278Z,20.60
2019-01-19T10:07:48.733Z,13.68
2019-01-19T10:10:17.617Z,15.65
2019-01-19T10:12:46.242Z,17.23
2019-01-19T10:15:19.567Z,16.42
2019-01-19T10:17:48.035Z,18.45
2019-01-19T10:20:19.189Z,13.48
2019-01-19T10:22:48.035Z,17.27
2019-01-19T10:25:17.037Z,22.95
2019-01-19T10:27:45.588Z,13.13
2019-01-19T10:30:30.485Z,17.85
2019-01-19T10:32:58.929Z,18.30
2019-01-19T10:35:27.373Z,20.50
2019-01-19T10:37:56.811Z,20.85
2019-01-19T10:40:25.385Z,18.12
2019-01-19T10:42:53.903Z,15.75
2019-01-19T10:45:26.665Z,18.27
2019-01-19T10:47:55.104Z,17.95
2019-01-19T10:50:23.545Z,18.90
2019-01-19T10:52:52.398Z,18.10
2019-01-19T10:55:22.913Z,22.82
2019-01-19T10:57:51.454Z,21.75
2019-01-19T11:00:31.325Z,18.95
2019-01-19T11:03:00.328Z,19.10
2019-01-19T11:05:29.504Z,16.40
2019-01-19T11:08:03.648Z,19.48
2019-01-19T11:10:31.168Z,21.57
2019-01-19T11:12:59.593Z,19.37
2019-01-19T11:15:28.050Z,22.00
2019-01-19T11:17:56.449Z,19.10
2019-01-19T11:20:27.681Z,21.85
2019-01-19T11:22:56.674Z,19.40
2019-01-19T11:25:25.341Z,19.02
2019-01-19T11:27:54.166Z,17.35
2019-01-19T11:30:27.854Z,20.25
2019-01-19T11:32:56.345Z,14.35
2019-01-19T11:35:24.886Z,16.35
2019-01-19T11:37:53.531Z,18.85
2019-01-19T11:40:33.370Z,16.97
2019-01-19T11:43:01.768Z,15.30
2019-01-19T11:45:35.566Z,17.73
2019-01-19T11:48:04.293Z,17.52
2019-01-19T11:50:32.758Z,18.90
2019-01-19T11:53:01.185Z,17.15
2019-01-19T11:55:29.601Z,15.53
2019-01-19T11:58:00.561Z,17.95
2019-01-19T12:00:34.523Z,17.40
2019-01-19T12:03:03.059Z,19.82
2019-01-19T12:05:31.513Z,19.00
2019-01-19T12:08:00.217Z,22.90
2019-01-19T12:10:30.956Z,24.87
2019-01-19T12:12:59.794Z,19.27
2019-01-19T12:15:28.457Z,18.62
2019-01-19T12:17:57.241Z,17.87
2019-01-19T12:20:37.577Z,17.57
2019-01-19T12:23:06.825Z,17.40
2019-01-19T12:25:35.255Z,17.65
2019-01-19T12:28:03.760Z,17.80
2019-01-19T12:30:33.188Z,14.75
2019-01-19T12:33:01.625Z,21.15
2019-01-19T12:35:30.309Z,19.82
2019-01-19T12:37:59.810Z,19.15
2019-01-19T12:40:29.761Z,18.62
2019-01-19T12:43:01.333Z,17.40
2019-01-19T12:45:49.114Z,18.77
2019-01-19T12:48:17.540Z,16.52
2019-01-19T12:50:46.040Z,18.30
2019-01-19T12:53:15.908Z,17.92
2019-01-19T12:55:44.573Z,17.75
2019-01-19T12:58:13.073Z,18.90
2019-01-19T13:00:41.517Z,17.50
2019-01-19T13:03:10.418Z,14.23
2019-01-19T13:05:50.686Z,20.95
2019-01-19T13:08:34.176Z,19.80
2019-01-19T13:11:06.491Z,17.62
2019-01-19T13:13:37.228Z,15.63
2019-01-19T13:16:34.160Z,21.52
2019-01-19T13:19:08.481Z,12.25
2019-01-19T13:21:51.321Z,18.75
2019-01-19T13:24:43.950Z,20.17
2019-01-19T13:27:18.209Z,21.20
2019-01-19T13:30:17.135Z,17.25
2019-01-19T13:32:48.609Z,16.85
2019-01-19T13:35:48.801Z,21.60
2019-01-19T13:38:55.325Z,17.85
2019-01-19T13:41:43.213Z,18.67
2019-01-19T13:44:38.778Z,16.82
2019-01-19T13:47:41.820Z,13.25
2019-01-19T13:50:18.959Z,17.25
2019-01-19T13:52:59.120Z,19.65
2019-01-19T13:55:33.421Z,17.30
2019-01-19T13:58:11.128Z,19.10
2019-01-19T14:00:51.777Z,14.78
2019-01-19T14:03:26.088Z,19.92
2019-01-19T14:06:03.662Z,17.62
2019-01-19T14:08:53.074Z,17.92
2019-01-19T14:11:45.748Z,13.48
2019-01-19T14:14:26.081Z,18.65
2019-01-19T14:17:06.421Z,15.75
2019-01-19T14:19:49.784Z,13.10
2019-01-19T14:22:24.169Z,16.85
2019-01-19T14:25:21.142Z,19.15
2019-01-19T14:28:18.748Z,15.30
2019-01-19T14:31:16.778Z,16.15
2019-01-19T14:33:48.289Z,15.55
2019-01-19T14:36:22.782Z,17.60
2019-01-19T14:39:03.333Z,18.90
2019-01-19T14:41:51.563Z,17.35
2019-01-19T14:44:44.061Z,18.37
2019-01-19T14:47:18.573Z,15.83
2019-01-19T14:50:18.281Z,18.62
2019-01-19T14:52:52.499Z,16.73
2019-01-19T14:55:29.754Z,17.73
2019-01-19T14:58:01.238Z,17.15
2019-01-19T15:00:41.777Z,22.22
2019-01-19T15:03:25.269Z,13.70
2019-01-19T15:06:30.353Z,13.40
2019-01-19T15:09:04.418Z,19.85
2019-01-19T15:11:58.426Z,18.62
2019-01-19T15:14:58.078Z,21.10
2019-01-19T15:17:46.353Z,21.05
2019-01-19T15:20:26.881Z,18.32
2019-01-19T15:23:10.258Z,20.25
2019-01-19T15:26:01.203Z,16.97
2019-01-19T15:28:56.871Z,22.73
2019-01-19T15:32:01.518Z,26.52
2019-01-19T15:34:52.180Z,21.17
2019-01-19T15:37:29.221Z,23.62
2019-01-19T15:40:19.072Z,19.73
2019-01-19T15:42:53.569Z,20.43
2019-01-19T15:45:25.098Z,20.32
2019-01-19T15:47:59.211Z,20.05
2019-01-19T15:50:39.556Z,19.30
2019-01-19T15:53:14.446Z,22.05
2019-01-19T15:56:02.643Z,17.50
2019-01-19T15:58:42.413Z,16.62
2019-01-19T16:01:23.143Z,19.55
2019-01-19T16:04:10.196Z,21.90
2019-01-19T16:06:43.167Z,18.00
2019-01-19T16:09:20.474Z,22.20
2019-01-19T16:12:03.729Z,19.70
2019-01-19T16:14:35.202Z,21.40
2019-01-19T16:17:12.557Z,27.73
2019-01-19T16:19:53.395Z,25.80
2019-01-19T16:22:27.646Z,25.55
2019-01-19T16:25:15.742Z,27.17
2019-01-19T16:27:50.205Z,30.20
2019-01-19T16:30:24.338Z,26.40
2019-01-19T16:33:13.684Z,24.30
2019-01-19T16:35:50.786Z,26.10
2019-01-19T16:38:40.562Z,19.82
2019-01-19T16:41:34.797Z,28.60
2019-01-19T16:44:21.307Z,25.00
2019-01-19T16:47:21.653Z,25.10
2019-01-19T16:50:13.096Z,25.48
2019-01-19T16:52:59.893Z,29.70
2019-01-19T16:55:53.501Z,23.98
2019-01-19T16:58:44.720Z,24.20
2019-01-19T17:01:28.430Z,31.60
2019-01-19T17:04:12.266Z,27.50
2019-01-19T17:06:55.769Z,30.48
2019-01-19T17:09:33.418Z,29.72
2019-01-19T17:12:04.975Z,31.35
2019-01-19T17:15:03.050Z,28.83
2019-01-19T17:17:55.884Z,30.25
2019-01-19T17:20:42.060Z,33.15
2019-01-19T17:23:13.565Z,30.50
2019-01-19T17:26:00.283Z,30.30
2019-01-19T17:28:52.997Z,24.60
2019-01-19T17:31:33.337Z,30.10
2019-01-19T17:34:13.837Z,26.12
2019-01-19T17:37:02.121Z,27.10
2019-01-19T17:39:45.793Z,30.77
2019-01-19T17:42:22.760Z,25.25
2019-01-19T17:45:12.190Z,28.75
2019-01-19T17:48:05.062Z,32.17
2019-01-19T17:51:09.472Z,28.67
2019-01-19T17:53:43.546Z,25.72
2019-01-19T17:56:34.658Z,34.50
2019-01-19T17:59:11.748Z,29.70
2019-01-19T18:01:46.319Z,32.60
2019-01-19T18:04:26.663Z,31.50
2019-01-19T18:07:21.002Z,29.82
2019-01-19T18:10:15.341Z,32.85
2019-01-19T18:12:46.866Z,32.35
2019-01-19T18:15:33.798Z,29.72
2019-01-19T18:18:13.813Z,32.30
2019-01-19T18:20:57.056Z,29.55
2019-01-19T18:23:57.499Z,38.50
2019-01-19T18:26:34.953Z,38.90
2019-01-19T18:29:24.208Z,33.50
2019-01-19T18:32:16.553Z,33.42
2019-01-19T18:34:48.044Z,30.57
2019-01-19T18:37:43.456Z,29.00
2019-01-19T18:40:48.299Z,41.28
2019-01-19T18:43:19.809Z,35.48
2019-01-19T18:45:57.522Z,36.75
2019-01-19T18:48:34.962Z,32.05
2019-01-19T18:51:34.079Z,38.13
2019-01-19T18:54:05.680Z,35.70
2019-01-19T18:57:02.722Z,39.67
2019-01-19T18:59:45.738Z,35.13
2019-01-19T19:02:38.522Z,42.00
2019-01-19T19:05:15.591Z,43.58
2019-01-19T19:07:56.090Z,38.55
2019-01-19T19:10:33.220Z,38.20
2019-01-19T19:13:25.769Z,36.33
2019-01-19T19:16:02.988Z,39.42
2019-01-19T19:18:43.519Z,38.48
2019-01-19T19:21:33.095Z,37.20
2019-01-19T19:24:28.744Z,41.60
2019-01-19T19:27:00.263Z,36.42
2019-01-19T19:29:49.120Z,37.00
2019-01-19T19:32:37.437Z,35.23
2019-01-19T19:35:11.662Z,36.20
2019-01-19T19:38:16.227Z,35.43
2019-01-19T19:40:54.593Z,32.60
2019-01-19T19:43:37.997Z,31.42
2019-01-19T19:46:19.991Z,34.15
2019-01-19T19:49:03.737Z,29.75
2019-01-19T19:51:57.607Z,34.23
2019-01-19T19:54:26.592Z,34.33
2019-01-19T19:56:55.392Z,32.78
2019-01-19T19:59:23.834Z,35.80
2019-01-19T20:01:52.258Z,39.05
2019-01-19T20:04:20.706Z,38.78
2019-01-19T20:06:49.197Z,40.08
2019-01-19T20:09:17.957Z,44.77
2019-01-19T20:11:46.498Z,37.95
2019-01-19T20:14:14.945Z,43.83
2019-01-19T20:16:43.356Z,31.68
2019-01-19T20:19:12.084Z,39.95
2019-01-19T20:21:40.513Z,31.37
2019-01-19T20:24:08.987Z,38.92
2019-01-19T20:26:37.483Z,95.95
2019-01-19T20:29:05.950Z,49.53
2019-01-19T20:31:34.702Z,36.53
2019-01-19T20:34:03.188Z,41.53
2019-01-19T20:36:31.973Z,47.08
2019-01-19T20:39:00.530Z,42.15
2019-01-19T20:41:29.023Z,41.55
2019-01-19T20:43:57.851Z,41.33
2019-01-19T20:46:27.028Z,48.52
2019-01-19T20:48:55.543Z,45.25
2019-01-19T20:51:23.995Z,48.08
2019-01-19T20:53:52.406Z,41.20
2019-01-19T20:56:20.844Z,51.13
2019-01-19T20:58:49.340Z,48.48
2019-01-19T21:01:17.798Z,43.40
2019-01-19T21:03:46.614Z,46.02
2019-01-19T21:06:15.085Z,49.85
2019-01-19T21:08:43.529Z,46.10
2019-01-19T21:11:11.944Z,46.33
2019-01-19T21:13:40.389Z,44.00
2019-01-19T21:16:08.834Z,51.48
2019-01-19T21:18:37.604Z,53.42
2019-01-19T21:21:06.027Z,70.42
2019-01-19T21:23:34.459Z,66.50
2019-01-19T21:26:02.861Z,71.45
2019-01-19T21:28:31.302Z,62.03
2019-01-19T21:30:59.719Z,56.60
2019-01-19T21:33:28.522Z,51.20
2019-01-19T21:35:57.018Z,49.20
2019-01-19T21:38:25.478Z,47.13
2019-01-19T21:40:53.881Z,49.03
2019-01-19T21:43:22.356Z,43.45
2019-01-19T21:45:50.865Z,41.30
2019-01-19T21:48:19.330Z,41.83
2019-01-19T21:50:47.742Z,43.42
2019-01-19T21:53:16.181Z,46.48
2019-01-19T21:55:44.589Z,47.75
2019-01-19T21:58:13.074Z,42.17
2019-01-19T22:00:41.520Z,49.90
2019-01-19T22:03:09.972Z,48.63
2019-01-19T22:05:38.401Z,37.42
2019-01-19T22:08:06.904Z,38.38
2019-01-19T22:10:35.400Z,35.25
2019-01-19T22:13:04.127Z,33.40
2019-01-19T22:15:32.570Z,45.05
2019-01-19T22:18:00.992Z,37.48
2019-01-19T22:20:29.437Z,38.50
2019-01-19T22:22:57.877Z,34.10
2019-01-19T22:25:26.344Z,38.05
2019-01-19T22:27:54.744Z,33.92
2019-01-19T22:30:24.518Z,39.70
2019-01-19T22:32:54.558Z,34.78
2019-01-19T22:35:25.053Z,38.85
2019-01-19T22:37:53.463Z,29.55
2019-01-19T22:40:21.885Z,37.33
2019-01-19T22:42:51.250Z,34.08
2019-01-19T22:45:19.835Z,41.02
2019-01-19T22:47:48.302Z,41.70
2019-01-19T22:50:17.791Z,37.15
2019-01-19T22:52:46.273Z,41.90
2019-01-19T22:55:15.413Z,41.33
2019-01-19T22:57:43.860Z,39.15
2019-01-19T23:00:39.464Z,35.63
2019-01-19T23:03:08.084Z,39.50
2019-01-19T23:05:36.565Z,48.15
2019-01-19T23:08:05.152Z,36.90
2019-01-19T23:10:33.821Z,41.88
2019-01-19T23:13:02.237Z,39.60
2019-01-19T23:15:30.685Z,35.75
2019-01-19T23:17:59.097Z,33.35
2019-01-19T23:20:27.521Z,33.02
2019-01-19T23:22:56.025Z,36.33
2019-01-19T23:25:24.489Z,36.85
2019-01-19T23:27:52.942Z,30.97
2019-01-19T23:30:21.348Z,39.40
2019-01-19T23:32:49.777Z,37.45
2019-01-19T23:35:18.207Z,38.10
2019-01-19T23:37:46.735Z,40.43
2019-01-19T23:40:15.369Z,31.07
2019-01-19T23:42:47.329Z,37.73
2019-01-19T23:45:14.301Z,38.42
2019-01-19T23:47:42.736Z,35.25
2019-01-19T23:50:11.673Z,42.78
2019-01-19T23:52:40.108Z,30.82
2019-01-19T23:55:08.694Z,34.43
2019-01-19T23:57:37.124Z,37.08
